Terminal Aerodrome Forecast
Issued by NWS

Home | Current Version | Previous Version | Text Only | Print | Product List | Glossary On
Versions: 1 2 3 4 5 6 7 8 9 10 11 12 13 14 15 16 17 18 19 20 21 22 23
000
FTUS44 KOUN 071728
TAFPNC
TAF
KPNC 071728Z 0718/0818 32013G20KT P6SM SCT150 SCT250
     FM072000 33022G30KT P6SM BKN250
     FM080000 33012G18KT P6SM SCT250
     FM081500 33022G29KT P6SM SKC=

USA.gov is the U.S. government's official web portal to all federal, state and local government web resources and services.